< < Back
Terminal Aerodrome Forecast


Current Version              Previous Versions:   1  2  3  4  5  6  7  8  9  

Terminal Aerodrome Forecast

599
FTUS42 KFFC 031136
TAFAHN
TAF
KAHN 031136Z 0312/0412 00000KT P6SM SKC
     FM031700 21006KT P6SM FEW210
     FM040200 00000KT P6SM FEW240=

Latest METAR

059
SAUS70 KWBC 031954
MTRAHN
METAR KAHN 031951Z VRB05KT 10SM CLR 27/09 A3015 RMK AO2 SLP205
T02670094


USA.gov is the U.S. government's official web portal to all federal, state and local government web resources and services.